Time;durP1;ratioP1;P1;durP2;ratioP2;P2;SDS_P1;SDS_P2;PMS_P1;PMS_P2;Temp;Humidity;BMP_temperature;BMP_pressure;BME280_temperature;BME280_humidity;BME280_pressure;Samples;Min_cycle;Max_cycle;Signal;HPM_P1;HPM_P2
2023/06/09 00:01:55;;;;;;;6.65;6.28;;;;;;;;;;10279279;28;20218;-79
2023/06/09 00:06:56;;;;;;;8.07;7.30;;;;;;;;;;10308354;28;21064;-79
2023/06/09 00:11:57;;;;;;;;;;;;;;;;;;10335499;28;20228;-80
2023/06/09 00:16:59;;;;;;;7.30;6.70;;;;;;;;;;10304367;28;21343;-79
2023/06/09 00:22:01;;;;;;;;;;;;;;;;;;10303840;28;21595;-81
2023/06/09 00:27:02;;;;;;;;;;;;;;;;;;10334673;28;19924;-79
2023/06/09 00:32:03;;;;;;;;;;;;;;;;;;10328812;28;19983;-80
2023/06/09 00:37:04;;;;;;;;;;;;;;;;;;10329773;28;20537;-79
2023/06/09 00:42:05;;;;;;;;;;;;;;;;;;10326331;28;19920;-79
2023/06/09 00:47:06;;;;;;;;;;;;;;;;;;10326278;28;19963;-79
2023/06/09 00:52:07;;;;;;;;;;;;;;;;;;10319710;28;20015;-78
2023/06/09 00:57:08;;;;;;;;;;;;;;;;;;10330560;28;19920;-78
2023/06/09 01:02:12;;;;;;;;;;;;;;;;;;10324446;28;19990;-79
2023/06/09 01:07:17;;;;;;;;;;;;;;;;;;10309062;28;20047;-80
2023/06/09 01:12:18;;;;;;;;;;;;;;;;;;10327631;28;19994;-79
2023/06/09 01:17:19;;;;;;;;;;;;;;;;;;10311381;28;19956;-78
2023/06/09 01:22:20;;;;;;;;;;;;;;;;;;10330110;28;20722;-79
2023/06/09 01:27:21;;;;;;;;;;;;;;;;;;10290599;28;19921;-79
2023/06/09 01:32:23;;;;;;;;;;;;;;;;;;10311449;28;19927;-77
2023/06/09 01:37:24;;;;;;;;;;;;;;;;;;10351671;28;19924;-78
2023/06/09 01:42:25;;;;;;;;;;;;;;;;;;10333357;28;20473;-77
2023/06/09 01:47:26;;;;;;;;;;;;;;;;;;10326036;28;19963;-77
2023/06/09 01:52:27;;;;;;;;;;;;;;;;;;10330585;28;19920;-76
2023/06/09 01:57:28;;;;;;;;;;;;;;;;;;10343345;28;20437;-78
2023/06/09 02:02:29;;;;;;;;;;;;;;;;;;10310494;28;20917;-78
2023/06/09 02:07:30;;;;;;;;;;;;;;;;;;10301635;28;20698;-77
2023/06/09 02:12:32;;;;;;;;;;;;;;;;;;10300457;28;19925;-77
2023/06/09 02:17:33;;;;;;;;;;;;;;;;;;10271071;28;19920;-81
2023/06/09 02:22:34;;;;;;;;;;;;;;;;;;10276254;28;19924;-78
2023/06/09 02:27:35;;;;;;;;;;;;;;;;;;10292966;28;20513;-78
2023/06/09 02:32:36;;;;;;;;;;;;;;;;;;10402146;28;20027;-77
2023/06/09 02:37:37;;;;;;;;;;;;;;;;;;10417894;28;20467;-76
2023/06/09 02:42:38;;;;;;;;;;;;;;;;;;10408248;28;20378;-77
2023/06/09 02:47:39;;;;;;;;;;;;;;;;;;10408362;28;19924;-76
2023/06/09 02:52:40;;;;;;;;;;;;;;;;;;10414311;28;19951;-76
2023/06/09 02:57:42;;;;;;;;;;;;;;;;;;10419200;28;19943;-77
2023/06/09 03:02:45;;;;;;;;;;;;;;;;;;10387296;28;19927;-79
2023/06/09 03:07:46;;;;;;;;;;;;;;;;;;10434519;28;19932;-77
2023/06/09 03:12:47;;;;;;;;;;;;;;;;;;10412706;28;20843;-77
2023/06/09 03:17:48;;;;;;;;;;;;;;;;;;10412925;28;19946;-77
2023/06/09 03:22:52;;;;;;;;;;;;;;;;;;10429499;28;19928;-78
2023/06/09 03:27:53;;;;;;;;;;;;;;;;;;10406090;28;20448;-78
2023/06/09 03:32:54;;;;;;;;;;;;;;;;;;10376446;28;19924;-78
2023/06/09 03:37:55;;;;;;;;;;;;;;;;;;10393181;28;19927;-77
2023/06/09 03:42:56;;;;;;;;;;;;;;;;;;10400000;28;19967;-78
2023/06/09 03:47:57;;;;;;;;;;;;;;;;;;10392764;28;19921;-77
2023/06/09 03:52:58;;;;;;;;;;;;;;;;;;10398204;28;19916;-78
2023/06/09 03:58:00;;;;;;;;;;;;;;;;;;10413964;28;20054;-78
2023/06/09 04:03:01;;;;;;;;;;;;;;;;;;10412672;28;19932;-78
2023/06/09 04:08:02;;;;;;;;;;;;;;;;;;10459049;28;20349;-78
2023/06/09 04:13:03;;;;;;;;;;;;;;;;;;10450363;28;19916;-77
2023/06/09 04:18:04;;;;;;;;;;;;;;;;;;10447366;28;20460;-78
2023/06/09 04:23:08;;;;;;;;;;;;;;;;;;10449867;28;20888;-78
2023/06/09 04:28:10;;;;;;;;;;;;;;;;;;10447970;28;19927;-78
2023/06/09 04:33:12;;;;;;;;;;;;;;;;;;10446379;28;19978;-77
2023/06/09 04:38:14;;;;;;;;;;;;;;;;;;10447773;28;20011;-78
2023/06/09 04:43:16;;;;;;;;;;;;;;;;;;10426867;28;19932;-78
2023/06/09 04:48:17;;;;;;;;;;;;;;;;;;10446443;28;19920;-77
2023/06/09 04:53:19;;;;;;;;;;;;;;;;;;10411577;28;19920;-78
2023/06/09 04:58:25;;;;;;;;;;;;;;;;;;10442263;28;19927;-78
2023/06/09 05:03:28;;;;;;;;;;;;;;;;;;10440725;28;19978;-77
2023/06/09 05:08:29;;;;;;;;;;;;;;;;;;10428329;28;19916;-77
2023/06/09 05:13:30;;;;;;;;;;;;;;;;;;10443731;28;19928;-78
2023/06/09 05:18:31;;;;;;;;;;;;;;;;;;10429209;28;19928;-79
2023/06/09 05:23:33;;;;;;;;;;;;;;;;;;10447813;28;19924;-78
2023/06/09 05:28:33;;;;;;;;;;;;;;;;;;10429327;28;20670;-78
2023/06/09 05:33:34;;;;;;;;;;;;;;;;;;10448406;28;19916;-79
2023/06/09 05:38:36;;;;;;;;;;;;;;;;;;10440984;28;19912;-79
2023/06/09 05:43:37;;;;;;;;;;;;;;;;;;10455865;28;20361;-80
2023/06/09 05:48:38;;;;;;;;;;;;;;;;;;10445008;28;20382;-81
2023/06/09 05:53:39;;;;;;;;;;;;;;;;;;10460577;28;19962;-82
2023/06/09 05:58:40;;;;;;;;;;;;;;;;;;10451953;28;20305;-82
2023/06/09 06:03:41;;;;;;;;;;;;;;;;;;10448885;28;19940;-80
2023/06/09 06:08:42;;;;;;;;;;;;;;;;;;10454224;28;20458;-80
2023/06/09 06:13:43;;;;;;;;;;;;;;;;;;10451787;28;19912;-82
2023/06/09 06:18:44;;;;;;;;;;;;;;;;;;10416027;28;19948;-83
2023/06/09 06:23:45;;;;;;;;;;;;;;;;;;10440820;28;19931;-82
2023/06/09 06:28:47;;;;;;;;;;;;;;;;;;10452191;28;19986;-82
2023/06/09 06:33:48;;;;;;;;;;;;;;;;;;10426920;28;19981;-82
2023/06/09 06:38:49;;;;;;;;;;;;;;;;;;10441645;28;19920;-82
2023/06/09 06:43:51;;;;;;;;;;;;;;;;;;10446931;28;20004;-82
2023/06/09 06:48:52;;;;;;;;;;;;;;;;;;10458011;28;20015;-82
2023/06/09 06:53:52;;;;;;;;;;;;;;;;;;10459321;28;19917;-83
2023/06/09 06:58:54;;;;;;;;;;;;;;;;;;10460423;28;19916;-83
2023/06/09 07:03:56;;;;;;;;;;;;;;;;;;10441081;28;19924;-82
2023/06/09 07:08:57;;;;;;;;;;;;;;;;;;10455854;28;19912;-82
2023/06/09 07:13:58;;;;;;;;;;;;;;;;;;10454453;28;20435;-82
2023/06/09 07:18:59;;;;;;;;;;;;;;;;;;10458470;28;19923;-82
2023/06/09 07:24:00;;;;;;;;;;;;;;;;;;10461277;28;19926;-83
2023/06/09 07:29:01;;;;;;;;;;;;;;;;;;10456818;28;20078;-82
2023/06/09 07:34:02;;;;;;;;;;;;;;;;;;10456927;28;19923;-82
2023/06/09 07:39:04;;;;;;;;;;;;;;;;;;10459273;28;19920;-81
2023/06/09 07:44:06;;;;;;;;;;;;;;;;;;10449057;28;19931;-81
2023/06/09 07:49:07;;;;;;;;;;;;;;;;;;10451911;28;19946;-82
2023/06/09 07:54:08;;;;;;;;;;;;;;;;;;10433465;28;21526;-80
2023/06/09 07:59:09;;;;;;;;;;;;;;;;;;10457787;28;19955;-81
2023/06/09 08:04:10;;;;;;;;;;;;;;;;;;10452227;28;20027;-81
2023/06/09 08:09:11;;;;;;;;;;;;;;;;;;10436245;28;19916;-81
2023/06/09 08:14:13;;;;;;;;;;;;;;;;;;10436243;28;19916;-81
2023/06/09 08:19:14;;;;;;;;;;;;;;;;;;10429256;28;19916;-80
2023/06/09 08:24:15;;;;;;;;;;;;;;;;;;10452714;28;20309;-82
2023/06/09 08:29:18;;;;;;;;;;;;;;;;;;10435001;28;19919;-81
2023/06/09 08:34:19;;;;;;;;;;;;;;;;;;10453967;28;19916;-80
2023/06/09 08:39:20;;;;;;;;;;;;;;;;;;10457272;28;19920;-80
2023/06/09 08:44:21;;;;;;;;;;;;;;;;;;10444507;28;20290;-79
2023/06/09 08:49:22;;;;;;;;;;;;;;;;;;10448957;28;19921;-79
2023/06/09 08:54:23;;;;;;;;;;;;;;;;;;10445453;28;19916;-79
2023/06/09 08:59:24;;;;;;;;;;;;;;;;;;10433971;28;20553;-79
2023/06/09 09:04:25;;;;;;;;;;;;;;;;;;10440037;28;20043;-79
2023/06/09 09:09:26;;;;;;;;;;;;;;;;;;10450238;28;19931;-78
2023/06/09 09:14:27;;;;;;;;;;;;;;;;;;10422379;28;20786;-79
2023/06/09 09:19:28;;;;;;;;;;;;;;;;;;10445837;28;19923;-79
2023/06/09 09:24:32;;;;;;;;;;;;;;;;;;10429841;28;19947;-80
2023/06/09 09:29:33;;;;;;;;;;;;;;;;;;10432271;28;19924;-79
2023/06/09 09:34:34;;;;;;;;;;;;;;;;;;10436177;28;19956;-81
2023/06/09 09:39:35;;;;;;;;;;;;;;;;;;10421438;28;19957;-80
2023/06/09 09:44:36;;;;;;;;;;;;;;;;;;10410981;28;19927;-79
2023/06/09 09:49:37;;;;;;;;;;;;;;;;;;10443568;28;19973;-81
2023/06/09 09:54:38;;;;;;;;;;;;;;;;;;10454587;28;19965;-79
2023/06/09 09:59:39;;;;;;;;;;;;;;;;;;10454048;28;19970;-79
2023/06/09 10:04:40;;;;;;;;;;;;;;;;;;10440237;28;19924;-79
2023/06/09 10:09:41;;;;;;;;;;;;;;;;;;10437465;28;19923;-79
2023/06/09 10:14:42;;;;;;;;;;;;;;;;;;10438237;28;19916;-79
2023/06/09 10:19:43;;;;;;;;;;;;;;;;;;10456230;28;20017;-79
2023/06/09 10:24:44;;;;;;;;;;;;;;;;;;10458354;28;19924;-82
2023/06/09 10:29:45;;;;;;;;;;;;;;;;;;10430840;28;20353;-81
2023/06/09 10:34:46;;;;;;;;;;;;;;;;;;10449478;28;20362;-79
2023/06/09 10:39:47;;;;;;;;;;;;;;;;;;10449394;28;19921;-79
2023/06/09 10:44:48;;;;;;;;;;;;;;;;;;10451642;28;19924;-79
2023/06/09 10:49:49;;;;;;;;;;;;;;;;;;10434244;28;20039;-79
2023/06/09 10:54:50;;;;;;;;;;;;;;;;;;10445947;28;19921;-80
2023/06/09 10:59:51;;;;;;;;;;;;;;;;;;10437030;28;19920;-79
2023/06/09 11:10:37;;;;;;;;;;;;;;;;;;10378248;28;19920;-96
2023/06/09 11:15:38;;;;;;;;;;;;;;;;;;10470778;28;19940;-95
2023/06/09 11:20:47;;;;;;;;;;;;;;;;;;10489919;22;20019;-81
2023/06/09 11:25:48;;;;;;;;;;;;;;;;;;10421910;28;19920;-78
2023/06/09 11:30:49;;;;;;;;;;;;;;;;;;10455083;28;20005;-79
2023/06/09 11:35:50;;;;;;;;;;;;;;;;;;10449988;28;19917;-79
2023/06/09 11:40:52;;;;;;;;;;;;;;;;;;10442533;28;19920;-79
2023/06/09 11:45:52;;;;;;;;;;;;;;;;;;10445991;28;20641;-80
2023/06/09 11:50:53;;;;;;;;;;;;;;;;;;10487903;28;20007;-79
2023/06/09 11:55:54;;;;;;;;;;;;;;;;;;10436094;28;19944;-81
2023/06/09 12:00:56;;;;;;;;;;;;;;;;;;10453103;28;21253;-81
2023/06/09 12:05:57;;;;;;;;;;;;;;;;;;10456927;28;19925;-79
2023/06/09 12:10:58;;;;;;;;;;;;;;;;;;10461319;28;19917;-77
2023/06/09 12:15:58;;;;;;;;;;;;;;;;;;10453577;28;19922;-80
2023/06/09 12:20:59;;;;;;;;;;;;;;;;;;10445495;28;19978;-79
2023/06/09 12:26:00;;;;;;;;;;;;;;;;;;10463563;28;19924;-77
2023/06/09 12:31:02;;;;;;;;;;;;;;;;;;10471890;28;19912;-78
2023/06/09 12:36:03;;;;;;;;;;;;;;;;;;10473760;28;20459;-78
2023/06/09 12:41:03;;;;;;;;;;;;;;;;;;10462859;28;19925;-77
2023/06/09 12:46:05;;;;;;;;;;;;;;;;;;10438208;28;19966;-79
2023/06/09 12:51:06;;;;;;;;;;;;;;;;;;10481794;28;19923;-77
2023/06/09 12:56:07;;;;;;;;;;;;;;;;;;10471408;28;20011;-78
2023/06/09 13:01:08;;;;;;;;;;;;;;;;;;10466278;28;19923;-78
2023/06/09 13:06:09;;;;;;;;;;;;;;;;;;10470384;28;19920;-78
2023/06/09 13:11:11;;;;;;;;;;;;;;;;;;10470047;28;19919;-77
2023/06/09 13:16:12;;;;;;;;;;;;;;;;;;10485561;28;19923;-77
2023/06/09 13:21:13;;;;;;;;;;;;;;;;;;10475329;28;20707;-78
2023/06/09 13:26:14;;;;;;;;;;;;;;;;;;10471139;28;19963;-79
2023/06/09 13:31:15;;;;;;;;;;;;;;;;;;10482127;28;19950;-81
2023/06/09 13:36:16;;;;;;;;;;;;;;;;;;10471449;28;19927;-79
2023/06/09 13:41:17;;;;;;;;;;;;;;;;;;10477634;28;20290;-80
2023/06/09 13:46:18;;;;;;;;;;;;;;;;;;10484308;28;19927;-79
2023/06/09 13:51:19;;;;;;;;;;;;;;;;;;10454281;28;20405;-79
2023/06/09 13:56:21;;;;;;;;;;;;;;;;;;10465663;28;19925;-80
2023/06/09 14:01:21;;;;;;;;;;;;;;;;;;10477951;28;19920;-79
2023/06/09 14:06:25;;;;;;;;;;;;;;;;;;10480736;28;20397;-80
2023/06/09 14:11:26;;;;;;;;;;;;;;;;;;10479693;28;19913;-80
2023/06/09 14:16:27;;;;;;;;;;;;;;;;;;10489605;28;19920;-80
2023/06/09 14:21:28;;;;;;;;;;;;;;;;;;10486537;28;19979;-79
2023/06/09 14:26:29;;;;;;;;;;;;;;;;;;10482904;28;20532;-81
2023/06/09 14:31:30;;;;;;;;;;;;;;;;;;10486020;28;19938;-79
2023/06/09 14:36:31;;;;;;;;;;;;;;;;;;10485574;28;20365;-79
2023/06/09 14:41:32;;;;;;;;;;;;;;;;;;10482312;28;20036;-83
2023/06/09 14:46:33;;;;;;;;;;;;;;;;;;10487704;28;19920;-81
2023/06/09 14:51:37;;;;;;;;;;;;;;;;;;10471026;28;20022;-79
2023/06/09 14:56:38;;;;;;;;;;;;;;;;;;10483002;28;19916;-80
2023/06/09 15:01:39;;;;;;;;;;;;;;;;;;10498051;28;19935;-79
2023/06/09 15:06:40;;;;;;;;;;;;;;;;;;10496272;28;19919;-81
2023/06/09 15:11:41;;;;;;;;;;;;;;;;;;10495037;28;19912;-80
2023/06/09 15:16:42;;;;;;;;;;;;;;;;;;10463673;28;19916;-80
2023/06/09 15:21:43;;;;;;;;;;;;;;;;;;10458017;28;20405;-80
2023/06/09 15:26:44;;;;;;;;;;;;;;;;;;10482191;28;19924;-81
2023/06/09 15:31:45;;;;;;;;;;;;;;;;;;10481053;28;19951;-80
2023/06/09 15:36:45;;;;;;;;;;;;;;;;;;10478292;28;20628;-79
2023/06/09 15:41:47;;;;;;;;;;;;;;;;;;10472140;28;19943;-79
2023/06/09 15:46:47;;;;;;;;;;;;;;;;;;10452781;28;19971;-79
2023/06/09 15:51:49;;;;;;;;;;;;;;;;;;10472389;28;20376;-80
2023/06/09 15:56:50;;;;;;;;;;;;;;;;;;10460136;28;19959;-80
2023/06/09 16:01:53;;;;;;;;;;;;;;;;;;10464450;28;20678;-79
2023/06/09 16:06:54;;;;;;;;;;;;;;;;;;10468377;28;19932;-79
2023/06/09 16:11:55;;;;;;;;;;;;;;;;;;10469430;28;19958;-79
2023/06/09 16:16:56;;;;;;;;;;;;;;;;;;10475380;28;19923;-80
2023/06/09 16:21:58;;;;;;;;;;;;;;;;;;10476615;28;19963;-80
2023/06/09 16:26:59;;;;;;;;;;;;;;;;;;10476124;28;19916;-80
2023/06/09 16:32:00;;;;;;;;;;;;;;;;;;10482913;28;19927;-80
2023/06/09 16:37:01;;;;;;;;;;;;;;;;;;10462349;28;19959;-79
2023/06/09 16:42:02;;;;;;;;;;;;;;;;;;10475597;28;20378;-79
2023/06/09 16:47:03;;;;;;;;;;;;;;;;;;10477298;28;19923;-80
2023/06/09 16:52:04;;;;;;;;;;;;;;;;;;10461920;28;19958;-79
2023/06/09 16:57:05;;;;;;;;;;;;;;;;;;10465954;28;20595;-79
2023/06/09 17:02:06;;;;;;;;;;;;;;;;;;10488519;28;20053;-80
2023/06/09 17:07:07;;;;;;;;;;;;;;;;;;10495535;28;19934;-79
2023/06/09 17:12:08;;;;;;;;;;;;;;;;;;10486794;28;19946;-76
2023/06/09 17:17:09;;;;;;;;;;;;;;;;;;10487515;28;19958;-77
2023/06/09 17:22:10;;;;;;;;;;;;;;;;;;10491533;28;19955;-77
2023/06/09 17:27:13;;;;;;;;;;;;;;;;;;10486092;28;19931;-77
2023/06/09 17:32:14;;;;;;;;;;;;;;;;;;10486428;28;19912;-77
2023/06/09 17:37:15;;;;;;;;;;;;;;;;;;10461075;28;19920;-77
2023/06/09 17:42:16;;;;;;;;;;;;;;;;;;10474771;28;20301;-77
2023/06/09 17:47:17;;;;;;;;;;;;;;;;;;10471737;28;19927;-77
2023/06/09 17:52:21;;;;;;;;;;;;;;;;;;10462010;28;21200;-79
2023/06/09 17:57:23;;;;;;;;;;;;;;;;;;10487715;28;20093;-78
2023/06/09 18:02:24;;;;;;;;;;;;;;;;;;10501692;28;19917;-81
2023/06/09 18:07:26;;;;;;;;;;;;;;;;;;10506122;28;20496;-81
2023/06/09 18:12:27;;;;;;;;;;;;;;;;;;10501099;28;19925;-82
2023/06/09 18:17:28;;;;;;;;;;;;;;;;;;10500670;28;19943;-81
2023/06/09 18:22:29;;;;;;;;;;;;;;;;;;10486550;28;19930;-82
2023/06/09 18:27:30;;;;;;;;;;;;;;;;;;10498598;28;20037;-82
2023/06/09 18:32:31;;;;;;;;;;;;;;;;;;10491116;28;20859;-80
2023/06/09 18:37:33;;;;;;;;;;;;;;;;;;10499574;28;20008;-80
2023/06/09 18:42:33;;;;;;;;;;;;;;;;;;10494964;28;19911;-80
2023/06/09 18:47:35;;;;;;;;;;;;;;;;;;10480536;28;19935;-80
2023/06/09 18:52:37;;;;;;;;;;;;;;;;;;10482276;28;19972;-80
2023/06/09 18:57:39;;;;;;;;;;;;;;;;;;10469041;28;19927;-79
2023/06/09 19:02:40;;;;;;;;;;;;;;;;;;10462963;28;20039;-82
2023/06/09 19:07:41;;;;;;;;;;;;;;;;;;10480196;28;19928;-80
2023/06/09 19:12:41;;;;;;;;;;;;;;;;;;10470088;28;19924;-78
2023/06/09 19:17:43;;;;;;;;;;;;;;;;;;10491796;28;19912;-81
2023/06/09 19:22:44;;;;;;;;;;;;;;;;;;10457605;28;19928;-79
2023/06/09 19:27:45;;;;;;;;;;;;;;;;;;10477131;28;19926;-79
2023/06/09 19:32:46;;;;;;;;;;;;;;;;;;10484381;28;19926;-79
2023/06/09 19:37:47;;;;;;;;;;;;;;;;;;10483071;28;20042;-79
2023/06/09 19:42:49;;;;;;;;;;;;;;;;;;10503081;28;20215;-81
2023/06/09 19:47:50;;;;;;;;;;;;;;;;;;10498770;28;19917;-79
2023/06/09 19:52:51;;;;;;;;;;;;;;;;;;10471379;28;19924;-79
2023/06/09 19:57:52;;;;;;;;;;;;;;;;;;10482052;28;19924;-80
2023/06/09 20:02:53;;;;;;;;;;;;;;;;;;10480529;28;19991;-78
2023/06/09 20:07:55;;;;;;;;;;;;;;;;;;10476759;28;20781;-78
2023/06/09 20:12:56;;;;;;;;;;;;;;;;;;10497027;28;19954;-78
2023/06/09 20:17:57;;;;;;;;;;;;;;;;;;10483964;28;20594;-79
2023/06/09 20:23:01;;;;;;;;;;;;;;;;;;10480606;28;19939;-79
2023/06/09 20:28:02;;;;;;;;;;;;;;;;;;10468286;28;19920;-78
2023/06/09 20:33:03;;;;;;;;;;;;;;;;;;10480497;28;19922;-77
2023/06/09 20:38:04;;;;;;;;;;;;;;;;;;10474846;28;19927;-77
2023/06/09 20:43:05;;;;;;;;;;;;;;;;;;10457999;28;19927;-78
2023/06/09 20:48:08;;;;;;;;;;;;;;;;;;10456486;28;19920;-80
2023/06/09 20:53:09;;;;;;;;;;;;;;;;;;10463588;28;20042;-79
2023/06/09 20:58:11;;;;;;;;;;;;;;;;;;10479099;28;20015;-79
2023/06/09 21:03:13;;;;;;;;;;;;;;;;;;10484636;28;19908;-78
2023/06/09 21:08:15;;;;;;;;;;;;;;;;;;10470404;28;20016;-79
2023/06/09 21:13:16;;;;;;;;;;;;;;;;;;10494391;28;19942;-79
2023/06/09 21:18:17;;;;;;;;;;;;;;;;;;10512490;28;19916;-80
2023/06/09 21:23:18;;;;;;;;;;;;;;;;;;10500882;28;19954;-81
2023/06/09 21:28:19;;;;;;;;;;;;;;;;;;10487673;28;20271;-80
2023/06/09 21:33:20;;;;;;;;;;;;;;;;;;10495281;28;19916;-79
2023/06/09 21:38:21;;;;;;;;;;;;;;;;;;10455968;28;19916;-79
2023/06/09 21:43:22;;;;;;;;;;;;;;;;;;10480065;28;19917;-78
2023/06/09 21:48:23;;;;;;;;;;;;;;;;;;10480935;28;20788;-80
2023/06/09 21:53:24;;;;;;;;;;;;;;;;;;10491477;28;19916;-80
2023/06/09 21:58:25;;;;;;;;;;;;;;;;;;10503085;28;19923;-82
2023/06/09 22:03:26;;;;;;;;;;;;;;;;;;10477807;28;19916;-80
2023/06/09 22:08:27;;;;;;;;;;;;;;;;;;10493031;28;19958;-79
2023/06/09 22:13:28;;;;;;;;;;;;;;;;;;10493589;28;19912;-80
2023/06/09 22:18:30;;;;;;;;;;;;;;;;;;10490715;28;19981;-79
2023/06/09 22:23:41;;;;;;;;;;;;;;;;;;10507502;28;19920;-79
2023/06/09 22:28:43;;;;;;;;;;;;;;;;;;10507739;28;19912;-79
2023/06/09 22:33:45;;;;;;;;;;;;;;;;;;10504159;28;19930;-79
2023/06/09 22:38:46;;;;;;;;;;;;;;;;;;10484104;28;19931;-80
2023/06/09 22:43:46;;;;;;;;;;;;;;;;;;10504564;28;19916;-80
2023/06/09 22:48:48;;;;;;;;;;;;;;;;;;10480922;28;19920;-80
2023/06/09 22:53:51;;;;;;;;;;;;;;;;;;10502697;28;20005;-80
2023/06/09 22:58:52;;;;;;;;;;;;;;;;;;10501170;28;19916;-80
2023/06/09 23:03:53;;;;;;;;;;;;;;;;;;10500358;28;19987;-80
2023/06/09 23:08:54;;;;;;;;;;;;;;;;;;10496000;28;20320;-80
2023/06/09 23:13:55;;;;;;;;;;;;;;;;;;10501690;28;20007;-79
2023/06/09 23:18:57;;;;;;;;;;;;;;;;;;10474239;28;19920;-79
2023/06/09 23:24:00;;;;;;;;;;;;;;;;;;10498624;28;19920;-79
2023/06/09 23:29:01;;;;;;;;;;;;;;;;;;10493212;28;20761;-81
2023/06/09 23:34:02;;;;;;;;;;;;;;;;;;10482713;28;19922;-79
2023/06/09 23:39:04;;;;;;;;;;;;;;;;;;10491362;28;19916;-79
2023/06/09 23:44:05;;;;;;;;;;;;;;;;;;10495119;28;19916;-79
2023/06/09 23:49:07;;;;;;;;;;;;;;;;;;10494311;28;19927;-80
2023/06/09 23:54:07;;;;;;;;;;;;;;;;;;10484391;28;20014;-79
2023/06/09 23:59:08;;;;;;;;;;;;;;;;;;10475529;28;19923;-79
